Time;durP1;ratioP1;P1;durP2;ratioP2;P2;SDS_P1;SDS_P2;PMS_P1;PMS_P2;Temp;Humidity;BMP_temperature;BMP_pressure;BME280_temperature;BME280_humidity;BME280_pressure;Samples;Min_cycle;Max_cycle;Signal;HPM_P1;HPM_P2
2022/01/27 00:01:05;;;;;;;37.83;27.10;;;;;;;2.21;100.00;102786.56;4970711;28;20098;-64
2022/01/27 00:04:02;;;;;;;35.60;26.10;;;;;;;2.20;100.00;102778.69;5024159;28;20029;-64
2022/01/27 00:06:19;;;;;;;38.70;27.60;;;;;;;2.21;100.00;102780.53;5015763;28;20022;-64
2022/01/27 00:08:54;;;;;;;39.60;27.50;;;;;;;2.22;100.00;102780.66;5017663;28;20088;-64
2022/01/27 00:11:20;;;;;;;33.63;26.20;;;;;;;2.22;100.00;102767.88;5078645;27;20027;-64
2022/01/27 00:13:48;;;;;;;37.83;27.50;;;;;;;2.24;100.00;102760.34;5132154;27;20038;-64
2022/01/27 00:16:18;;;;;;;33.83;26.40;;;;;;;2.24;100.00;102752.66;5123243;27;20080;-64
2022/01/27 00:18:46;;;;;;;38.37;26.40;;;;;;;2.24;100.00;102734.75;5125153;27;20528;-64
2022/01/27 00:21:13;;;;;;;37.97;25.20;;;;;;;2.26;100.00;102720.47;5127586;27;20094;-64
2022/01/27 00:23:41;;;;;;;35.07;25.70;;;;;;;2.26;100.00;102729.06;5132729;27;20386;-63
2022/01/27 00:26:07;;;;;;;35.40;26.57;;;;;;;2.26;100.00;102726.50;5121384;27;20016;-64
2022/01/27 00:28:32;;;;;;;36.60;24.93;;;;;;;2.26;100.00;102729.06;5122335;27;20141;-64
2022/01/27 00:30:59;;;;;;;36.53;26.23;;;;;;;2.27;100.00;102723.16;5127022;27;20058;-64
2022/01/27 00:33:25;;;;;;;34.60;25.10;;;;;;;2.28;100.00;102731.75;5117043;27;20034;-64
2022/01/27 00:35:50;;;;;;;36.00;25.53;;;;;;;2.29;100.00;102741.22;5121723;27;20024;-64
2022/01/27 00:38:16;;;;;;;35.13;25.17;;;;;;;2.30;100.00;102735.38;5126390;27;20034;-64
2022/01/27 00:40:41;;;;;;;36.40;26.43;;;;;;;2.32;100.00;102731.28;5118834;27;20471;-64
2022/01/27 00:43:06;;;;;;;32.73;25.30;;;;;;;2.33;100.00;102738.22;5120036;27;20051;-64
2022/01/27 00:45:33;;;;;;;34.27;25.40;;;;;;;2.35;100.00;102736.72;5111955;28;20380;-64
2022/01/27 00:48:02;;;;;;;33.70;24.67;;;;;;;2.34;100.00;102727.22;5115261;27;20374;-64
2022/01/27 00:50:29;;;;;;;34.47;26.07;;;;;;;2.35;100.00;102716.22;5132627;27;20087;-64
2022/01/27 00:52:56;;;;;;;32.20;25.77;;;;;;;2.35;100.00;102706.00;5132597;27;20072;-64
2022/01/27 00:55:24;;;;;;;33.73;25.07;;;;;;;2.37;100.00;102703.59;5132631;27;20498;-64
2022/01/27 00:58:15;;;;;;;32.67;25.30;;;;;;;2.39;100.00;102704.63;5113771;27;20027;-64
2022/01/27 01:00:50;;;;;;;33.13;25.73;;;;;;;2.37;100.00;102704.50;5117339;27;20023;-64
2022/01/27 01:03:30;;;;;;;36.73;26.00;;;;;;;2.39;100.00;102708.06;5109484;27;20029;-64
2022/01/27 01:17:24;;;;;;;36.57;25.00;;;;;;;2.46;100.00;102693.31;5066453;28;20032;-64
2022/01/27 01:32:47;;;;;;;31.20;24.33;;;;;;;2.54;100.00;102671.91;5007731;28;20533;-64
2022/01/27 01:35:13;;;;;;;31.97;23.63;;;;;;;2.54;100.00;102669.34;5007629;28;20200;-64
2022/01/27 01:37:42;;;;;;;30.57;23.50;;;;;;;2.54;100.00;102666.78;5007465;28;20509;-64
2022/01/27 01:40:11;;;;;;;33.23;24.50;;;;;;;2.56;100.00;102665.25;5007734;28;20584;-64
2022/01/27 01:42:37;;;;;;;31.50;23.13;;;;;;;2.55;100.00;102653.25;5006014;28;20072;-64
2022/01/27 01:45:09;;;;;;;30.17;23.83;;;;;;;2.58;100.00;102647.50;5005217;28;20097;-64
2022/01/27 01:47:34;;;;;;;;;;;;;;;2.59;100.00;102634.81;5008430;28;20037;-64
2022/01/27 01:50:00;;;;;;;30.97;22.87;;;;;;;2.59;100.00;102627.16;5016952;28;20365;-64
2022/01/27 01:52:25;;;;;;;31.27;22.97;;;;;;;2.59;100.00;102629.72;5063603;28;20439;-64
2022/01/27 01:54:54;;;;;;;30.73;23.80;;;;;;;2.59;100.00;102639.94;5060274;28;20036;-64
2022/01/27 01:57:19;;;;;;;34.87;24.43;;;;;;;2.61;100.00;102652.88;5058157;28;20024;-64
2022/01/27 01:59:44;;;;;;;30.70;23.90;;;;;;;2.60;100.00;102657.13;5062889;28;20607;-64
2022/01/27 02:02:12;;;;;;;31.53;22.87;;;;;;;2.61;100.00;102647.75;5059704;28;20493;-64
2022/01/27 02:04:39;;;;;;;31.17;23.60;;;;;;;2.61;100.00;102656.34;5060143;28;20028;-64
2022/01/27 02:07:11;;;;;;;29.03;22.97;;;;;;;2.62;100.00;102644.47;5060390;28;20020;-64
2022/01/27 02:17:59;;;;;;;34.00;24.07;;;;;;;2.66;100.00;102597.00;5120854;27;20077;-64
2022/01/27 02:20:24;;;;;;;31.43;22.27;;;;;;;2.68;100.00;102583.56;5118694;27;20081;-64
2022/01/27 02:22:49;;;;;;;30.33;23.97;;;;;;;2.69;100.00;102575.16;5123599;27;20035;-64
2022/01/27 02:25:15;;;;;;;29.37;23.67;;;;;;;2.69;100.00;102579.38;5130596;27;20035;-64
2022/01/27 02:27:40;;;;;;;28.50;22.43;;;;;;;2.71;100.00;102583.88;5115143;27;20043;-64
2022/01/27 02:30:06;;;;;;;31.40;21.93;;;;;;;2.71;100.00;102589.00;5114990;27;20043;-64
2022/01/27 02:32:31;;;;;;;27.57;21.17;;;;;;;2.73;100.00;102595.19;5130361;27;20026;-64
2022/01/27 02:34:57;;;;;;;29.57;22.80;;;;;;;2.74;100.00;102593.50;5124435;27;20067;-64
2022/01/27 02:37:22;;;;;;;28.93;22.10;;;;;;;2.74;100.00;102593.50;5125176;27;20042;-64
2022/01/27 02:39:48;;;;;;;28.30;21.93;;;;;;;2.74;100.00;102596.97;5124545;27;20023;-64
2022/01/27 02:42:29;;;;;;;31.73;22.33;;;;;;;2.74;100.00;102589.28;5107904;28;20122;-64
2022/01/27 02:44:54;;;;;;;25.97;21.57;;;;;;;2.76;100.00;102579.19;5114668;27;20028;-64
2022/01/27 02:47:22;;;;;;;32.63;23.47;;;;;;;2.75;100.00;102578.25;5114320;27;20023;-64
2022/01/27 02:49:48;;;;;;;26.80;21.43;;;;;;;2.76;100.00;102571.50;5109739;27;20024;-64
2022/01/27 02:52:14;;;;;;;27.40;21.67;;;;;;;2.78;100.00;102575.09;5106611;27;20494;-64
2022/01/27 02:54:39;;;;;;;26.97;21.50;;;;;;;2.78;100.00;102580.22;5121890;27;20029;-64
2022/01/27 02:57:05;;;;;;;28.90;22.43;;;;;;;2.81;100.00;102565.13;5112062;27;20107;-64
2022/01/27 02:59:30;;;;;;;30.13;22.77;;;;;;;2.81;100.00;102566.78;5120291;28;20046;-64
2022/01/27 03:06:04;;;;;;;30.27;21.48;;;;;;;2.82;100.00;102543.91;5130108;27;20578;-64
2022/01/27 03:08:29;;;;;;;27.27;20.73;;;;;;;2.84;100.00;102534.66;5109931;28;20032;-64
2022/01/27 03:11:02;;;;;;;29.13;22.27;;;;;;;2.82;100.00;102525.97;5104400;28;20423;-64
2022/01/27 03:13:30;;;;;;;27.60;21.37;;;;;;;2.82;100.00;102546.47;5103077;28;20028;-64
2022/01/27 03:15:55;;;;;;;29.20;21.43;;;;;;;2.84;100.00;102552.59;5110203;27;20024;-64
2022/01/27 03:18:21;;;;;;;28.13;21.97;;;;;;;2.84;100.00;102550.03;5115301;28;20031;-64
2022/01/27 03:20:46;;;;;;;27.13;21.07;;;;;;;2.84;100.00;102539.78;5121433;28;20032;-64
2022/01/27 03:23:11;;;;;;;31.13;22.10;;;;;;;2.85;100.00;102540.69;5115443;28;20027;-64
2022/01/27 03:25:37;;;;;;;27.50;21.00;;;;;;;2.85;100.00;102527.91;5129765;28;20025;-64
2022/01/27 03:28:02;;;;;;;27.83;21.53;;;;;;;2.84;100.00;102524.44;5129764;28;20038;-64
2022/01/27 03:30:27;;;;;;;29.80;21.63;;;;;;;2.86;100.00;102514.34;5125256;27;20395;-64
2022/01/27 03:32:53;;;;;;;28.70;21.70;;;;;;;2.84;100.00;102518.44;5114951;28;20031;-64
2022/01/27 03:35:18;;;;;;;36.23;21.00;;;;;;;2.83;100.00;102516.59;5109130;28;20028;-64
2022/01/27 03:37:43;;;;;;;29.70;21.37;;;;;;;2.82;100.00;102515.72;5119546;27;20384;-64
2022/01/27 03:40:09;;;;;;;29.77;21.70;;;;;;;2.84;100.00;102519.31;5122732;27;20414;-64
2022/01/27 03:42:42;;;;;;;32.10;21.23;;;;;;;2.84;100.00;102515.88;5112085;27;20016;-64
2022/01/27 03:45:08;;;;;;;32.03;22.47;;;;;;;2.83;100.00;102525.19;5099730;28;20054;-64
2022/01/27 03:47:33;;;;;;;29.37;21.17;;;;;;;2.81;100.00;102513.91;5127395;27;20361;-64
2022/01/27 03:49:59;;;;;;;29.63;20.97;;;;;;;2.81;100.00;102524.16;5129831;27;20432;-64
2022/01/27 03:52:24;;;;;;;30.57;20.77;;;;;;;2.80;100.00;102516.34;5109033;27;20031;-64
2022/01/27 03:54:49;;;;;;;29.80;21.77;;;;;;;2.79;100.00;102525.66;5104668;28;20031;-64
2022/01/27 03:57:15;;;;;;;31.03;20.90;;;;;;;2.78;100.00;102516.19;5110080;28;20036;-64
2022/01/27 03:59:40;;;;;;;28.40;20.67;;;;;;;2.81;100.00;102515.56;5123303;28;20058;-64
2022/01/27 04:02:05;;;;;;;28.77;20.00;;;;;;;2.82;100.00;102509.69;5114566;28;20042;-64
2022/01/27 04:04:31;;;;;;;31.73;21.93;;;;;;;2.84;100.00;102510.75;5122424;28;20055;-64
2022/01/27 04:06:58;;;;;;;29.20;21.20;;;;;;;2.85;100.00;102495.50;5119514;27;20024;-64
2022/01/27 04:09:24;;;;;;;31.30;21.53;;;;;;;2.85;100.00;102485.28;5118634;27;20036;-64
2022/01/27 04:11:50;;;;;;;31.80;21.53;;;;;;;2.86;100.00;102487.06;5119951;27;20034;-65
2022/01/27 04:14:15;;;;;;;31.57;22.50;;;;;;;2.87;100.00;102473.50;5111666;27;20032;-64
2022/01/27 04:16:41;;;;;;;31.13;20.63;;;;;;;2.88;100.00;102464.13;5110966;27;20023;-65
2022/01/27 04:19:06;;;;;;;29.77;20.23;;;;;;;2.88;100.00;102471.81;5121390;27;20028;-65
2022/01/27 04:21:32;;;;;;;27.57;19.93;;;;;;;2.90;100.00;102472.00;5110666;27;20442;-64
2022/01/27 04:23:57;;;;;;;31.20;20.00;;;;;;;2.90;100.00;102482.22;5133110;27;20030;-65
2022/01/27 04:26:33;;;;;;;28.50;20.10;;;;;;;2.91;100.00;102468.66;5127909;27;20100;-64
2022/01/27 04:28:58;;;;;;;27.50;20.77;;;;;;;2.94;100.00;102466.34;5110680;27;20061;-64
2022/01/27 04:31:26;;;;;;;29.77;19.77;;;;;;;2.93;100.00;102462.88;5128672;27;20086;-64
2022/01/27 04:33:52;;;;;;;27.17;19.27;;;;;;;2.93;100.00;102460.31;5112662;27;20514;-64
2022/01/27 04:36:27;;;;;;;24.70;18.93;;;;;;;2.93;100.00;102467.13;5120636;27;20070;-65
2022/01/27 04:39:19;;;;;;;28.13;19.17;;;;;;;2.91;100.00;102458.41;5111102;27;20419;-64
2022/01/27 04:42:00;;;;;;;27.87;20.07;;;;;;;2.93;100.00;102446.66;5107627;28;20533;-65
2022/01/27 04:47:25;;;;;;;28.60;19.77;;;;;;;2.94;100.00;102444.22;5120671;27;20394;-64
2022/01/27 04:49:51;;;;;;;30.70;20.53;;;;;;;2.93;100.00;102431.28;5132047;27;20437;-64
2022/01/27 04:52:16;;;;;;;29.73;19.47;;;;;;;2.91;100.00;102432.78;5122971;27;20034;-64
2022/01/27 04:57:18;;;;;;;29.70;21.37;;;;;;;2.92;100.00;102430.38;5126757;27;20060;-65
2022/01/27 04:59:45;;;;;;;29.83;18.57;;;;;;;2.91;100.00;102427.69;5111621;28;20065;-65
2022/01/27 05:02:29;;;;;;;26.77;19.60;;;;;;;2.91;100.00;102422.56;5108449;27;20399;-64
2022/01/27 05:04:54;;;;;;;27.07;19.00;;;;;;;2.90;100.00;102415.66;5125499;27;20112;-64
2022/01/27 05:07:20;;;;;;;26.07;19.43;;;;;;;2.87;100.00;102412.03;5114950;27;20015;-64
2022/01/27 05:09:55;;;;;;;30.70;19.90;;;;;;;2.86;100.00;102425.59;5129721;27;20023;-64
2022/01/27 05:14:53;;;;;;;;;;;;;;;2.88;100.00;102408.72;5132780;27;20058;-64
2022/01/27 05:17:19;;;;;;;28.47;19.53;;;;;;;2.88;100.00;102411.28;5117325;27;19916;-65
2022/01/27 05:19:47;;;;;;;25.37;18.70;;;;;;;2.87;100.00;102412.03;5123594;27;20114;-64
2022/01/27 05:22:13;;;;;;;28.30;19.30;;;;;;;2.89;100.00;102407.06;5122927;27;20106;-64
2022/01/27 05:24:39;;;;;;;27.33;19.87;;;;;;;2.88;100.00;102398.47;5132077;27;20107;-65
2022/01/27 05:27:04;;;;;;;27.53;20.03;;;;;;;2.88;100.00;102405.25;5120326;27;20033;-65
2022/01/27 05:29:30;;;;;;;29.27;20.50;;;;;;;2.90;100.00;102398.59;5124675;27;20052;-64
2022/01/27 05:31:55;;;;;;;27.33;19.07;;;;;;;2.91;100.00;102386.69;5107120;28;20039;-64
2022/01/27 05:34:20;;;;;;;28.33;20.03;;;;;;;2.94;100.00;102380.19;5099651;28;20035;-64
2022/01/27 05:36:45;;;;;;;28.27;20.20;;;;;;;2.96;100.00;102380.31;5100965;28;20126;-64
2022/01/27 05:39:12;;;;;;;27.23;18.93;;;;;;;2.98;100.00;102373.66;5099378;28;20474;-64
2022/01/27 05:41:37;;;;;;;29.67;20.80;;;;;;;2.97;100.00;102382.09;5102272;28;20027;-64
2022/01/27 05:44:03;;;;;;;29.17;20.00;;;;;;;2.97;100.00;102376.97;5101694;28;20023;-64
2022/01/27 05:46:28;;;;;;;30.80;20.10;;;;;;;2.97;100.00;102379.53;5101021;28;20096;-64
2022/01/27 05:48:54;;;;;;;30.57;20.53;;;;;;;3.00;100.00;102382.41;5098438;28;20308;-65
2022/01/27 05:51:19;;;;;;;29.40;20.37;;;;;;;3.00;100.00;102380.72;5106446;28;20031;-64
2022/01/27 05:53:45;;;;;;;27.47;19.77;;;;;;;3.01;100.00;102373.94;5096615;28;20385;-64
2022/01/27 05:56:10;;;;;;;28.03;19.70;;;;;;;3.01;100.00;102384.19;5103503;28;20478;-65
2022/01/27 05:58:35;;;;;;;30.23;19.73;;;;;;;3.05;100.00;102377.66;5090468;28;20479;-64
2022/01/27 06:01:01;;;;;;;28.13;19.90;;;;;;;3.09;100.00;102372.06;5109841;28;20169;-65
2022/01/27 06:03:26;;;;;;;27.47;19.70;;;;;;;3.13;100.00;102379.22;5109901;28;20047;-64
2022/01/27 06:05:51;;;;;;;29.37;20.43;;;;;;;3.14;100.00;102375.00;5105920;28;20117;-65
2022/01/27 06:08:17;;;;;;;28.03;19.83;;;;;;;3.15;100.00;102366.56;5099557;28;20050;-65
2022/01/27 06:10:42;;;;;;;27.67;19.70;;;;;;;3.16;100.00;102363.22;5078815;28;20032;-64
2022/01/27 06:13:08;;;;;;;30.77;19.90;;;;;;;3.15;100.00;102364.88;5095521;28;20023;-64
2022/01/27 06:15:33;;;;;;;29.63;18.90;;;;;;;3.17;100.00;102339.38;5090021;28;20039;-65
2022/01/27 06:18:00;;;;;;;30.40;20.43;;;;;;;3.20;100.00;102349.94;5104128;28;20023;-64
2022/01/27 06:20:28;;;;;;;29.27;20.50;;;;;;;3.21;100.00;102356.84;5098566;28;20028;-64
2022/01/27 06:22:57;;;;;;;29.07;20.03;;;;;;;3.22;100.00;102356.09;5094859;28;20020;-65
2022/01/27 06:25:23;;;;;;;29.07;19.73;;;;;;;3.24;100.00;102351.97;5102688;28;20423;-64
2022/01/27 06:27:48;;;;;;;31.27;20.73;;;;;;;3.24;100.00;102341.72;5105850;28;20031;-65
2022/01/27 06:30:13;;;;;;;33.37;21.63;;;;;;;3.25;100.00;102353.78;5117086;27;20122;-64
2022/01/27 06:32:39;;;;;;;30.70;20.80;;;;;;;3.26;100.00;102345.31;5110226;27;20027;-64
2022/01/27 06:35:05;;;;;;;31.60;20.77;;;;;;;3.27;100.00;102349.69;5127694;27;20076;-64
2022/01/27 06:37:31;;;;;;;31.57;19.80;;;;;;;3.29;100.00;102357.50;5109692;27;20047;-64
2022/01/27 06:39:57;;;;;;;31.90;21.37;;;;;;;3.29;100.00;102360.06;5124178;27;20031;-64
2022/01/27 06:42:22;;;;;;;29.30;21.20;;;;;;;3.28;100.00;102346.34;5113693;27;20431;-64
2022/01/27 06:44:47;;;;;;;34.33;21.03;;;;;;;3.29;100.00;102343.00;5116937;27;20027;-65
2022/01/27 06:47:13;;;;;;;35.43;22.83;;;;;;;3.29;100.00;102325.06;5125051;27;20030;-64
2022/01/27 06:49:38;;;;;;;31.60;22.07;;;;;;;3.29;100.00;102327.63;5102780;28;20071;-64
2022/01/27 06:52:04;;;;;;;34.83;21.73;;;;;;;3.30;100.00;102326.88;5117791;27;20031;-64
2022/01/27 06:54:29;;;;;;;33.57;21.57;;;;;;;3.31;100.00;102320.97;5130400;27;20061;-64
2022/01/27 06:56:55;;;;;;;31.93;22.97;;;;;;;3.32;100.00;102325.34;5128573;27;20034;-64
2022/01/27 06:59:20;;;;;;;32.43;22.20;;;;;;;3.34;100.00;102330.59;5104493;28;20042;-63
2022/01/27 07:01:46;;;;;;;35.17;22.70;;;;;;;3.37;100.00;102338.56;5129045;28;20023;-64
2022/01/27 07:04:11;;;;;;;34.43;21.93;;;;;;;3.39;100.00;102321.66;5122597;28;20120;-63
2022/01/27 07:06:37;;;;;;;32.10;21.73;;;;;;;3.41;100.00;102321.78;5108480;28;20386;-64
2022/01/27 07:09:03;;;;;;;32.83;21.40;;;;;;;3.41;100.00;102326.91;5123932;28;20174;-64
2022/01/27 07:11:29;;;;;;;31.93;21.57;;;;;;;3.41;100.00;102322.69;5123287;28;20112;-64
2022/01/27 07:13:54;;;;;;;35.10;22.30;;;;;;;3.43;100.00;102323.72;5129979;27;20035;-64
2022/01/27 07:16:19;;;;;;;34.07;22.00;;;;;;;3.44;100.00;102329.72;5121909;28;20035;-64
2022/01/27 07:18:44;;;;;;;34.00;23.20;;;;;;;3.44;100.00;102330.63;5116587;28;20050;-64
2022/01/27 07:21:10;;;;;;;34.07;23.33;;;;;;;3.46;100.00;102330.75;5117863;27;20027;-64
2022/01/27 07:23:35;;;;;;;34.73;23.60;;;;;;;3.47;100.00;102341.13;5129424;27;20027;-63
2022/01/27 07:26:01;;;;;;;32.23;21.97;;;;;;;3.47;100.00;102336.00;5112744;28;20024;-64
2022/01/27 07:28:26;;;;;;;34.23;22.83;;;;;;;3.47;100.00;102341.13;5114520;28;20161;-64
2022/01/27 07:30:52;;;;;;;33.50;23.50;;;;;;;3.48;100.00;102334.34;5117280;28;20494;-64
2022/01/27 07:33:17;;;;;;;32.93;21.73;;;;;;;3.48;100.00;102336.91;5110184;28;20028;-64
2022/01/27 07:35:43;;;;;;;37.07;23.07;;;;;;;3.51;100.00;102341.41;5111939;28;20028;-63
2022/01/27 07:38:08;;;;;;;36.07;24.17;;;;;;;3.52;100.00;102343.19;5121573;28;20027;-64
2022/01/27 07:40:34;;;;;;;33.73;23.43;;;;;;;3.53;100.00;102347.53;5126548;27;20035;-63
2022/01/27 07:42:59;;;;;;;33.77;22.50;;;;;;;3.53;100.00;102338.19;5103633;27;20053;-64
2022/01/27 07:45:25;;;;;;;33.27;22.53;;;;;;;3.55;100.00;102339.22;5121361;27;20030;-64
2022/01/27 07:47:50;;;;;;;35.47;23.77;;;;;;;3.58;100.00;102338.59;5131936;27;20402;-63
2022/01/27 07:50:15;;;;;;;37.80;24.07;;;;;;;3.58;100.00;102339.47;5119013;27;20035;-63
2022/01/27 07:52:43;;;;;;;36.23;24.37;;;;;;;3.62;100.00;102335.50;5106750;27;20024;-64
2022/01/27 07:55:10;;;;;;;37.67;24.33;;;;;;;3.64;100.00;102339.09;5120546;27;20023;-64
2022/01/27 07:57:36;;;;;;;34.23;23.30;;;;;;;3.65;100.00;102345.16;5127210;27;20429;-64
2022/01/27 08:00:02;;;;;;;42.07;25.80;;;;;;;3.64;100.00;102353.59;5126334;27;20139;-64
2022/01/27 08:02:27;;;;;;;40.00;26.10;;;;;;;3.63;100.00;102351.81;5119604;27;20031;-64
2022/01/27 08:04:53;;;;;;;40.70;27.27;;;;;;;3.62;100.00;102356.03;5132983;27;20374;-64
2022/01/27 08:07:18;;;;;;;40.17;25.17;;;;;;;3.62;100.00;102350.03;5133198;27;20440;-64
2022/01/27 08:09:44;;;;;;;45.17;28.23;;;;;;;3.60;100.00;102355.91;5133468;27;20111;-64
2022/01/27 08:12:10;;;;;;;44.30;28.73;;;;;;;3.57;100.00;102358.22;5126152;27;20031;-63
2022/01/27 08:14:35;;;;;;;46.43;27.83;;;;;;;3.56;100.00;102361.53;5132710;27;20029;-64
2022/01/27 08:17:00;;;;;;;45.70;30.10;;;;;;;3.54;100.00;102357.06;5128770;27;20023;-64
2022/01/27 08:19:26;;;;;;;50.17;29.30;;;;;;;3.54;100.00;102357.06;5130661;27;20351;-64
2022/01/27 08:21:51;;;;;;;51.60;30.43;;;;;;;3.53;100.00;102351.00;5126551;27;20018;-64
2022/01/27 08:24:18;;;;;;;49.73;30.27;;;;;;;3.53;100.00;102339.84;5132915;27;20075;-64
2022/01/27 08:26:46;;;;;;;53.30;30.00;;;;;;;3.53;100.00;102345.88;5130513;27;20027;-64
2022/01/27 08:29:31;;;;;;;55.27;32.37;;;;;;;3.55;100.00;102348.56;5119478;27;20039;-64
2022/01/27 08:31:59;;;;;;;54.80;31.97;;;;;;;3.54;100.00;102347.69;5132804;27;20039;-63
2022/01/27 08:34:45;;;;;;;54.63;31.33;;;;;;;3.52;100.00;102333.84;5131883;27;20034;-64
2022/01/27 08:37:21;;;;;;;54.57;33.83;;;;;;;3.51;100.00;102342.28;5132554;27;20030;-64
2022/01/27 08:39:47;;;;;;;54.67;34.03;;;;;;;3.49;100.00;102338.69;5132671;27;20019;-64
2022/01/27 08:42:13;;;;;;;62.87;33.23;;;;;;;3.49;100.00;102338.69;5132750;27;20019;-64
2022/01/27 08:44:39;;;;;;;59.93;34.37;;;;;;;3.50;100.00;102345.63;5132430;27;20049;-64
2022/01/27 08:47:05;;;;;;;63.50;34.53;;;;;;;3.49;100.00;102338.69;5132440;27;20429;-63
2022/01/27 08:49:31;;;;;;;55.83;34.77;;;;;;;3.50;100.00;102332.81;5130982;27;20023;-64
2022/01/27 08:51:57;;;;;;;59.77;35.80;;;;;;;3.50;100.00;102340.50;5123932;27;20073;-64
2022/01/27 08:54:23;;;;;;;59.37;36.20;;;;;;;3.52;100.00;102344.09;5111465;28;20034;-64
2022/01/27 08:56:48;;;;;;;59.03;36.43;;;;;;;3.54;100.00;102329.75;5111433;28;20065;-64
2022/01/27 08:59:16;;;;;;;60.20;35.57;;;;;;;3.57;100.00;102336.78;5111619;28;20031;-64
2022/01/27 09:01:42;;;;;;;66.50;35.67;;;;;;;3.58;100.00;102343.72;5111632;28;20020;-64
2022/01/27 09:04:07;;;;;;;64.90;38.27;;;;;;;3.61;100.00;102338.84;5110348;27;20077;-64
2022/01/27 09:06:33;;;;;;;59.50;36.90;;;;;;;3.63;100.00;102344.09;5120416;27;20113;-64
2022/01/27 09:08:59;;;;;;;62.27;37.70;;;;;;;3.67;100.00;102338.47;5131913;27;20041;-64
2022/01/27 09:11:25;;;;;;;62.90;37.67;;;;;;;3.69;100.00;102337.81;5116944;27;20034;-64
2022/01/27 09:13:53;;;;;;;58.73;36.40;;;;;;;3.70;100.00;102333.59;5096189;28;20443;-63
2022/01/27 09:16:19;;;;;;;61.37;36.57;;;;;;;3.73;100.00;102338.97;5123553;27;20035;-64
2022/01/27 09:18:44;;;;;;;61.43;36.90;;;;;;;3.77;100.00;102338.47;5131380;27;20130;-64
2022/01/27 09:21:16;;;;;;;56.53;35.90;;;;;;;3.80;100.00;102335.25;5131806;27;20087;-63
2022/01/27 09:23:41;;;;;;;61.87;37.20;;;;;;;3.82;100.00;102334.63;5132148;27;20026;-64
2022/01/27 09:26:20;;;;;;;60.87;36.37;;;;;;;3.86;100.00;102329.75;5131727;27;20026;-64
2022/01/27 09:28:47;;;;;;;61.93;36.57;;;;;;;3.88;100.00;102333.34;5131583;27;20023;-64
2022/01/27 09:31:12;;;;;;;56.13;37.03;;;;;;;3.90;100.00;102336.94;5131604;27;20059;-64
2022/01/27 09:33:38;;;;;;;65.53;38.67;;;;;;;3.92;100.00;102340.53;5131556;27;20463;-64
2022/01/27 09:36:11;;;;;;;57.07;36.57;;;;;;;3.94;100.00;102334.75;5131213;27;20458;-63
2022/01/27 09:38:37;;;;;;;54.00;35.53;;;;;;;3.97;100.00;102329.00;5131276;27;20439;-63
2022/01/27 09:41:02;;;;;;;57.13;37.30;;;;;;;3.98;100.00;102325.63;5131441;27;20027;-64
2022/01/27 09:43:28;;;;;;;55.70;37.20;;;;;;;4.01;100.00;102325.88;5131285;27;20394;-64
2022/01/27 09:45:55;;;;;;;54.70;36.47;;;;;;;4.03;100.00;102334.63;5131470;27;20023;-63
2022/01/27 09:48:23;;;;;;;61.00;37.10;;;;;;;4.06;100.00;102329.75;5131202;27;20394;-64
2022/01/27 09:53:15;;;;;;;58.60;36.97;;;;;;;4.11;100.00;102332.69;5131469;27;20125;-64
2022/01/27 09:55:40;;;;;;;54.73;36.03;;;;;;;4.12;100.00;102338.72;5112552;27;20023;-63
2022/01/27 09:58:07;;;;;;;55.13;34.83;;;;;;;4.13;100.00;102346.56;5130921;27;20346;-64
2022/01/27 10:00:33;;;;;;;50.33;34.17;;;;;;;4.15;100.00;102349.25;5119081;27;20023;-64
2022/01/27 10:03:12;;;;;;;48.43;34.23;;;;;;;4.17;100.00;102342.56;5109681;28;20024;-64
2022/01/27 10:05:38;;;;;;;48.63;33.63;;;;;;;4.18;100.00;102349.47;5110298;28;20027;-64
2022/01/27 10:08:14;;;;;;;48.97;35.17;;;;;;;4.20;100.00;102350.50;5110195;28;20383;-64
2022/01/27 10:10:48;;;;;;;48.30;33.40;;;;;;;4.23;100.00;102347.31;5110284;28;20026;-64
2022/01/27 10:13:31;;;;;;;46.73;34.13;;;;;;;4.23;100.00;102355.00;5110363;28;20031;-64
2022/01/27 10:15:56;;;;;;;48.50;34.00;;;;;;;4.25;100.00;102350.88;5110182;28;20031;-64
2022/01/27 10:18:25;;;;;;;45.17;33.60;;;;;;;4.25;100.00;102326.13;5110423;28;20356;-64
2022/01/27 10:20:58;;;;;;;43.90;32.47;;;;;;;4.27;100.00;102339.06;5110340;28;20479;-64
2022/01/27 10:23:30;;;;;;;43.43;33.77;;;;;;;4.30;100.00;102347.06;5109871;28;20503;-64
2022/01/27 10:26:07;;;;;;;45.37;32.43;;;;;;;4.30;100.00;102340.22;5110360;28;20125;-64
2022/01/27 10:28:48;;;;;;;46.23;33.83;;;;;;;4.32;100.00;102348.94;5110165;28;20020;-64
2022/01/27 10:31:20;;;;;;;41.53;31.73;;;;;;;4.35;100.00;102339.72;5109712;28;20453;-65
2022/01/27 10:34:02;;;;;;;40.67;31.27;;;;;;;4.37;100.00;102343.31;5118203;27;20496;-64
2022/01/27 10:36:31;;;;;;;41.23;30.47;;;;;;;4.38;100.00;102342.53;5130218;27;20380;-64
2022/01/27 10:39:02;;;;;;;43.43;32.33;;;;;;;4.40;100.00;102351.25;5130503;27;20079;-63
2022/01/27 10:41:33;;;;;;;40.73;30.37;;;;;;;4.40;100.00;102335.84;5130187;27;20048;-64
2022/01/27 10:44:17;;;;;;;39.80;29.42;;;;;;;4.40;100.00;102336.75;5111529;27;20035;-64
2022/01/27 10:47:12;;;;;;;35.53;28.00;;;;;;;4.40;100.00;102341.88;5130160;27;20467;-64
2022/01/27 10:49:43;;;;;;;38.60;30.00;;;;;;;4.42;100.00;102337.78;5130267;27;20497;-64
2022/01/27 10:52:13;;;;;;;;;;;;;;;4.44;100.00;102343.03;5123700;27;20023;-64
2022/01/27 10:54:42;;;;;;;41.20;30.70;;;;;;;4.45;100.00;102334.56;5130031;27;20010;-64
2022/01/27 10:57:12;;;;;;;40.43;30.60;;;;;;;4.48;100.00;102339.94;5130030;27;20471;-64
2022/01/27 10:59:38;;;;;;;37.30;30.53;;;;;;;4.49;100.00;102345.97;5109186;28;20019;-64
2022/01/27 11:02:06;;;;;;;39.70;30.93;;;;;;;4.49;100.00;102346.88;5130298;28;20382;-64
2022/01/27 11:04:34;;;;;;;38.70;30.43;;;;;;;4.53;100.00;102348.91;5129634;28;20027;-64
2022/01/27 11:07:02;;;;;;;38.80;31.57;;;;;;;4.55;100.00;102351.63;5129801;27;20019;-64
2022/01/27 11:09:29;;;;;;;40.90;31.67;;;;;;;4.60;100.00;102339.13;5129985;28;20608;-64
2022/01/27 11:11:56;;;;;;;39.37;31.13;;;;;;;4.62;100.00;102340.16;5123261;27;20023;-64
2022/01/27 11:14:24;;;;;;;41.10;32.50;;;;;;;4.63;100.00;102341.94;5130790;27;20434;-64
2022/01/27 11:16:51;;;;;;;39.13;32.37;;;;;;;4.66;100.00;102339.63;5133686;27;20493;-64
2022/01/27 11:20:24;;;;;;;43.67;32.37;;;;;;;4.68;100.00;102330.38;5127064;27;20478;-64
2022/01/27 11:25:49;;;;;;;42.67;33.10;;;;;;;4.73;100.00;102321.34;5133754;27;20031;-65
2022/01/27 11:27:55;;;;;;;45.13;32.93;;;;;;;4.75;100.00;102308.66;5133802;27;20076;-64
2022/01/27 11:30:45;;;;;;;41.60;33.10;;;;;;;4.78;100.00;102314.03;5133717;27;20441;-64
2022/01/27 11:33:14;;;;;;;44.17;33.20;;;;;;;4.80;100.00;102297.06;5115553;27;20074;-64
2022/01/27 11:35:40;;;;;;;38.60;33.13;;;;;;;4.85;100.00;102300.00;5133708;27;20031;-64
2022/01/27 11:38:08;;;;;;;44.03;33.27;;;;;;;4.91;100.00;102295.34;5126424;27;20102;-64
2022/01/27 11:40:42;;;;;;;43.37;32.07;;;;;;;4.96;100.00;102294.03;5113244;28;20029;-64
2022/01/27 11:43:18;;;;;;;39.87;31.17;;;;;;;5.01;100.00;102297.88;5113384;28;20523;-64
2022/01/27 11:45:48;;;;;;;41.37;30.80;;;;;;;5.01;100.00;102285.03;5113253;28;20027;-64
2022/01/27 11:48:25;;;;;;;46.50;31.50;;;;;;;5.07;100.00;102288.84;5113481;28;20026;-64
2022/01/27 11:50:58;;;;;;;40.03;31.55;;;;;;;5.10;100.00;102292.53;5119467;27;20651;-64
2022/01/27 11:53:51;;;;;;;42.17;29.70;;;;;;;5.11;100.00;102293.44;5113119;28;20023;-64
2022/01/27 11:56:29;;;;;;;38.28;28.30;;;;;;;5.13;100.00;102291.88;5111447;28;20526;-64
2022/01/27 11:59:00;;;;;;;40.63;29.65;;;;;;;5.15;100.00;102285.19;5126848;27;20054;-64
2022/01/27 12:01:30;;;;;;;38.97;28.88;;;;;;;5.20;100.00;102286.44;5133251;27;20027;-64
2022/01/27 12:04:08;;;;;;;41.88;30.23;;;;;;;5.22;100.00;102290.03;5114899;27;20022;-64